sensor_id;sensor_type;location;lat;lon;timestamp;temperature;humidity
29431;DHT22;16404;49.902;10.074;2023-04-25T00:02:18;13.00;54.70
29431;DHT22;16404;49.902;10.074;2023-04-25T00:05:03;13.00;54.70
29431;DHT22;16404;49.902;10.074;2023-04-25T00:07:49;13.00;54.70
29431;DHT22;16404;49.902;10.074;2023-04-25T00:10:33;13.10;54.70
29431;DHT22;16404;49.902;10.074;2023-04-25T00:13:18;13.10;54.70
29431;DHT22;16404;49.902;10.074;2023-04-25T00:16:03;13.10;54.70
29431;DHT22;16404;49.902;10.074;2023-04-25T00:18:48;13.00;54.80
29431;DHT22;16404;49.902;10.074;2023-04-25T00:21:35;13.00;54.90
29431;DHT22;16404;49.902;10.074;2023-04-25T00:24:21;12.90;55.10
29431;DHT22;16404;49.902;10.074;2023-04-25T00:27:05;12.90;55.20
29431;DHT22;16404;49.902;10.074;2023-04-25T00:29:50;13.00;55.20
29431;DHT22;16404;49.902;10.074;2023-04-25T00:32:34;13.10;55.00
29431;DHT22;16404;49.902;10.074;2023-04-25T00:35:18;13.10;54.90
29431;DHT22;16404;49.902;10.074;2023-04-25T00:38:03;13.10;55.00
29431;DHT22;16404;49.902;10.074;2023-04-25T00:40:47;13.20;54.90
29431;DHT22;16404;49.902;10.074;2023-04-25T00:43:31;13.20;54.70
29431;DHT22;16404;49.902;10.074;2023-04-25T00:46:16;13.20;54.70
29431;DHT22;16404;49.902;10.074;2023-04-25T00:49:00;13.20;54.80
29431;DHT22;16404;49.902;10.074;2023-04-25T00:51:44;13.20;54.90
29431;DHT22;16404;49.902;10.074;2023-04-25T00:54:29;13.20;55.00
29431;DHT22;16404;49.902;10.074;2023-04-25T00:57:15;13.20;55.10
29431;DHT22;16404;49.902;10.074;2023-04-25T01:00:00;13.20;55.10
29431;DHT22;16404;49.902;10.074;2023-04-25T01:02:46;13.10;55.20
29431;DHT22;16404;49.902;10.074;2023-04-25T01:05:30;13.10;55.20
29431;DHT22;16404;49.902;10.074;2023-04-25T01:08:15;13.00;55.30
29431;DHT22;16404;49.902;10.074;2023-04-25T01:10:59;13.00;55.50
29431;DHT22;16404;49.902;10.074;2023-04-25T01:13:43;13.00;55.50
29431;DHT22;16404;49.902;10.074;2023-04-25T01:16:28;13.00;55.60
29431;DHT22;16404;49.902;10.074;2023-04-25T01:19:12;12.90;55.80
29431;DHT22;16404;49.902;10.074;2023-04-25T01:22:00;12.90;55.80
29431;DHT22;16404;49.902;10.074;2023-04-25T01:24:45;12.90;56.00
29431;DHT22;16404;49.902;10.074;2023-04-25T01:27:29;12.80;56.00
29431;DHT22;16404;49.902;10.074;2023-04-25T01:30:14;12.80;56.10
29431;DHT22;16404;49.902;10.074;2023-04-25T01:32:59;12.70;56.20
29431;DHT22;16404;49.902;10.074;2023-04-25T01:35:46;12.60;56.40
29431;DHT22;16404;49.902;10.074;2023-04-25T01:38:31;12.50;56.60
29431;DHT22;16404;49.902;10.074;2023-04-25T01:41:16;12.50;56.90
29431;DHT22;16404;49.902;10.074;2023-04-25T01:44:02;12.50;56.90
29431;DHT22;16404;49.902;10.074;2023-04-25T01:46:46;12.50;56.70
29431;DHT22;16404;49.902;10.074;2023-04-25T01:49:31;12.60;56.70
29431;DHT22;16404;49.902;10.074;2023-04-25T01:52:16;12.70;56.60
29431;DHT22;16404;49.902;10.074;2023-04-25T01:55:01;12.70;56.50
29431;DHT22;16404;49.902;10.074;2023-04-25T01:57:47;12.60;56.50
29431;DHT22;16404;49.902;10.074;2023-04-25T02:00:32;12.60;56.60
29431;DHT22;16404;49.902;10.074;2023-04-25T02:03:16;12.60;56.60
29431;DHT22;16404;49.902;10.074;2023-04-25T02:06:00;12.60;56.60
29431;DHT22;16404;49.902;10.074;2023-04-25T02:08:46;12.70;56.40
29431;DHT22;16404;49.902;10.074;2023-04-25T02:11:32;12.60;56.50
29431;DHT22;16404;49.902;10.074;2023-04-25T02:14:42;12.60;56.60
29431;DHT22;16404;49.902;10.074;2023-04-25T02:17:37;12.60;56.50
29431;DHT22;16404;49.902;10.074;2023-04-25T02:20:22;12.70;56.40
29431;DHT22;16404;49.902;10.074;2023-04-25T02:23:07;12.60;56.40
29431;DHT22;16404;49.902;10.074;2023-04-25T02:25:51;12.60;56.60
29431;DHT22;16404;49.902;10.074;2023-04-25T02:28:35;12.60;56.60
29431;DHT22;16404;49.902;10.074;2023-04-25T02:31:22;12.60;56.60
29431;DHT22;16404;49.902;10.074;2023-04-25T02:34:08;12.50;56.60
29431;DHT22;16404;49.902;10.074;2023-04-25T02:36:56;12.50;56.70
29431;DHT22;16404;49.902;10.074;2023-04-25T02:39:40;12.40;56.70
29431;DHT22;16404;49.902;10.074;2023-04-25T02:42:25;12.40;56.70
29431;DHT22;16404;49.902;10.074;2023-04-25T02:45:09;12.50;56.70
29431;DHT22;16404;49.902;10.074;2023-04-25T02:47:54;12.50;56.70
29431;DHT22;16404;49.902;10.074;2023-04-25T02:50:38;12.40;56.60
29431;DHT22;16404;49.902;10.074;2023-04-25T02:53:22;12.40;56.80
29431;DHT22;16404;49.902;10.074;2023-04-25T02:56:09;12.40;56.80
29431;DHT22;16404;49.902;10.074;2023-04-25T02:58:54;12.40;56.90
29431;DHT22;16404;49.902;10.074;2023-04-25T03:01:38;12.40;56.80
29431;DHT22;16404;49.902;10.074;2023-04-25T03:04:23;12.40;56.80
29431;DHT22;16404;49.902;10.074;2023-04-25T03:07:08;12.40;56.80
29431;DHT22;16404;49.902;10.074;2023-04-25T03:09:52;12.40;56.80
29431;DHT22;16404;49.902;10.074;2023-04-25T03:12:36;12.40;56.70
29431;DHT22;16404;49.902;10.074;2023-04-25T03:15:22;12.40;56.60
29431;DHT22;16404;49.902;10.074;2023-04-25T03:18:06;12.40;56.60
29431;DHT22;16404;49.902;10.074;2023-04-25T03:20:50;12.40;56.60
29431;DHT22;16404;49.902;10.074;2023-04-25T03:23:35;12.40;56.70
29431;DHT22;16404;49.902;10.074;2023-04-25T03:26:19;12.40;56.60
29431;DHT22;16404;49.902;10.074;2023-04-25T03:29:04;12.50;56.60
29431;DHT22;16404;49.902;10.074;2023-04-25T03:31:48;12.50;56.60
29431;DHT22;16404;49.902;10.074;2023-04-25T03:34:32;12.50;56.50
29431;DHT22;16404;49.902;10.074;2023-04-25T03:37:16;12.50;56.50
29431;DHT22;16404;49.902;10.074;2023-04-25T03:40:00;12.40;56.50
29431;DHT22;16404;49.902;10.074;2023-04-25T03:43:01;12.50;56.60
29431;DHT22;16404;49.902;10.074;2023-04-25T03:45:46;12.50;56.40
29431;DHT22;16404;49.902;10.074;2023-04-25T03:48:30;12.40;56.50
29431;DHT22;16404;49.902;10.074;2023-04-25T03:51:14;12.40;56.60
29431;DHT22;16404;49.902;10.074;2023-04-25T03:54:02;12.40;56.60
29431;DHT22;16404;49.902;10.074;2023-04-25T03:56:49;12.30;56.60
29431;DHT22;16404;49.902;10.074;2023-04-25T03:59:37;12.30;56.70
29431;DHT22;16404;49.902;10.074;2023-04-25T04:02:22;12.30;56.70
29431;DHT22;16404;49.902;10.074;2023-04-25T04:05:07;12.20;56.60
29431;DHT22;16404;49.902;10.074;2023-04-25T04:07:55;12.20;56.80
29431;DHT22;16404;49.902;10.074;2023-04-25T04:10:40;12.20;56.80
29431;DHT22;16404;49.902;10.074;2023-04-25T04:13:26;12.20;56.70
29431;DHT22;16404;49.902;10.074;2023-04-25T04:16:11;12.10;56.80
29431;DHT22;16404;49.902;10.074;2023-04-25T04:18:55;12.10;56.90
29431;DHT22;16404;49.902;10.074;2023-04-25T04:21:40;12.10;57.00
29431;DHT22;16404;49.902;10.074;2023-04-25T04:24:25;12.00;57.00
29431;DHT22;16404;49.902;10.074;2023-04-25T04:27:18;12.10;57.00
29431;DHT22;16404;49.902;10.074;2023-04-25T04:30:11;12.10;57.00
29431;DHT22;16404;49.902;10.074;2023-04-25T04:33:08;12.10;56.90
29431;DHT22;16404;49.902;10.074;2023-04-25T04:35:53;12.10;56.90
29431;DHT22;16404;49.902;10.074;2023-04-25T04:38:40;12.10;56.80
29431;DHT22;16404;49.902;10.074;2023-04-25T04:41:36;12.20;56.80
29431;DHT22;16404;49.902;10.074;2023-04-25T04:44:30;12.10;56.90
29431;DHT22;16404;49.902;10.074;2023-04-25T04:47:29;12.00;57.00
29431;DHT22;16404;49.902;10.074;2023-04-25T04:50:31;12.00;57.20
29431;DHT22;16404;49.902;10.074;2023-04-25T04:53:33;12.00;57.20
29431;DHT22;16404;49.902;10.074;2023-04-25T04:56:37;12.10;57.10
29431;DHT22;16404;49.902;10.074;2023-04-25T04:59:41;12.20;57.00
29431;DHT22;16404;49.902;10.074;2023-04-25T05:02:46;12.20;56.90
29431;DHT22;16404;49.902;10.074;2023-04-25T05:06:06;12.20;57.00
29431;DHT22;16404;49.902;10.074;2023-04-25T05:08:50;12.20;56.90
29431;DHT22;16404;49.902;10.074;2023-04-25T05:12:01;12.30;56.90
29431;DHT22;16404;49.902;10.074;2023-04-25T05:14:57;12.30;56.80
29431;DHT22;16404;49.902;10.074;2023-04-25T05:18:12;12.30;56.80
29431;DHT22;16404;49.902;10.074;2023-04-25T05:21:04;12.40;56.90
29431;DHT22;16404;49.902;10.074;2023-04-25T05:24:05;12.30;56.80
29431;DHT22;16404;49.902;10.074;2023-04-25T05:27:08;12.40;56.90
29431;DHT22;16404;49.902;10.074;2023-04-25T05:30:19;12.40;57.00
29431;DHT22;16404;49.902;10.074;2023-04-25T05:33:17;12.40;56.90
29431;DHT22;16404;49.902;10.074;2023-04-25T05:36:02;12.50;56.90
29431;DHT22;16404;49.902;10.074;2023-04-25T05:38:47;12.50;56.90
29431;DHT22;16404;49.902;10.074;2023-04-25T05:41:31;12.50;56.90
29431;DHT22;16404;49.902;10.074;2023-04-25T05:44:19;12.50;56.90
29431;DHT22;16404;49.902;10.074;2023-04-25T05:47:22;12.60;56.80
29431;DHT22;16404;49.902;10.074;2023-04-25T05:50:20;12.70;56.70
29431;DHT22;16404;49.902;10.074;2023-04-25T05:53:27;12.80;56.60
29431;DHT22;16404;49.902;10.074;2023-04-25T05:56:17;12.90;56.60
29431;DHT22;16404;49.902;10.074;2023-04-25T05:59:03;13.00;56.60
29431;DHT22;16404;49.902;10.074;2023-04-25T06:01:48;13.10;56.50
29431;DHT22;16404;49.902;10.074;2023-04-25T06:04:33;13.20;56.30
29431;DHT22;16404;49.902;10.074;2023-04-25T06:07:19;13.30;56.30
29431;DHT22;16404;49.902;10.074;2023-04-25T06:10:04;13.40;56.40
29431;DHT22;16404;49.902;10.074;2023-04-25T06:12:50;13.40;56.30
29431;DHT22;16404;49.902;10.074;2023-04-25T06:15:36;13.50;56.30
29431;DHT22;16404;49.902;10.074;2023-04-25T06:18:20;13.70;56.30
29431;DHT22;16404;49.902;10.074;2023-04-25T06:21:05;13.90;56.00
29431;DHT22;16404;49.902;10.074;2023-04-25T06:23:50;13.90;56.00
29431;DHT22;16404;49.902;10.074;2023-04-25T06:26:38;13.90;56.00
29431;DHT22;16404;49.902;10.074;2023-04-25T06:29:24;13.90;56.10
29431;DHT22;16404;49.902;10.074;2023-04-25T06:32:08;13.80;56.10
29431;DHT22;16404;49.902;10.074;2023-04-25T06:34:53;13.80;56.30
29431;DHT22;16404;49.902;10.074;2023-04-25T06:37:37;13.70;56.30
29431;DHT22;16404;49.902;10.074;2023-04-25T06:40:21;13.70;56.50
29431;DHT22;16404;49.902;10.074;2023-04-25T06:43:06;13.70;56.60
29431;DHT22;16404;49.902;10.074;2023-04-25T06:46:11;13.70;56.40
29431;DHT22;16404;49.902;10.074;2023-04-25T06:49:01;13.80;56.40
29431;DHT22;16404;49.902;10.074;2023-04-25T06:51:46;13.90;56.20
29431;DHT22;16404;49.902;10.074;2023-04-25T06:54:30;13.90;56.10
29431;DHT22;16404;49.902;10.074;2023-04-25T06:57:23;14.00;56.00
29431;DHT22;16404;49.902;10.074;2023-04-25T07:00:08;14.10;55.90
29431;DHT22;16404;49.902;10.074;2023-04-25T07:02:55;14.10;55.70
29431;DHT22;16404;49.902;10.074;2023-04-25T07:05:39;14.10;55.80
29431;DHT22;16404;49.902;10.074;2023-04-25T07:08:24;14.20;55.80
29431;DHT22;16404;49.902;10.074;2023-04-25T07:11:09;14.20;55.80
29431;DHT22;16404;49.902;10.074;2023-04-25T07:13:54;14.30;55.70
29431;DHT22;16404;49.902;10.074;2023-04-25T07:16:39;14.40;55.80
29431;DHT22;16404;49.902;10.074;2023-04-25T07:19:23;14.40;55.80
29431;DHT22;16404;49.902;10.074;2023-04-25T07:22:14;14.50;55.90
29431;DHT22;16404;49.902;10.074;2023-04-25T07:25:00;14.70;55.70
29431;DHT22;16404;49.902;10.074;2023-04-25T07:27:46;14.90;55.50
29431;DHT22;16404;49.902;10.074;2023-04-25T07:30:34;15.10;55.20
29431;DHT22;16404;49.902;10.074;2023-04-25T07:33:21;15.30;54.90
29431;DHT22;16404;49.902;10.074;2023-04-25T07:36:07;15.40;54.70
29431;DHT22;16404;49.902;10.074;2023-04-25T07:38:53;15.50;54.60
29431;DHT22;16404;49.902;10.074;2023-04-25T07:41:37;15.70;54.40
29431;DHT22;16404;49.902;10.074;2023-04-25T07:44:22;15.70;54.10
29431;DHT22;16404;49.902;10.074;2023-04-25T07:47:07;15.90;53.90
29431;DHT22;16404;49.902;10.074;2023-04-25T07:49:51;16.10;53.70
29431;DHT22;16404;49.902;10.074;2023-04-25T07:52:36;16.10;53.50
29431;DHT22;16404;49.902;10.074;2023-04-25T07:55:46;16.20;53.40
29431;DHT22;16404;49.902;10.074;2023-04-25T07:58:35;16.40;53.30
29431;DHT22;16404;49.902;10.074;2023-04-25T08:01:22;16.50;52.90
29431;DHT22;16404;49.902;10.074;2023-04-25T08:04:16;16.70;52.80
29431;DHT22;16404;49.902;10.074;2023-04-25T08:07:24;16.80;52.70
29431;DHT22;16404;49.902;10.074;2023-04-25T08:10:14;16.90;52.50
29431;DHT22;16404;49.902;10.074;2023-04-25T08:13:00;17.00;52.30
29431;DHT22;16404;49.902;10.074;2023-04-25T08:15:44;17.10;52.20
29431;DHT22;16404;49.902;10.074;2023-04-25T08:18:29;17.30;52.00
29431;DHT22;16404;49.902;10.074;2023-04-25T08:21:15;17.40;51.70
29431;DHT22;16404;49.902;10.074;2023-04-25T08:23:59;17.50;51.50
29431;DHT22;16404;49.902;10.074;2023-04-25T08:26:48;17.60;51.40
29431;DHT22;16404;49.902;10.074;2023-04-25T08:29:35;17.80;51.20
29431;DHT22;16404;49.902;10.074;2023-04-25T08:32:19;17.90;51.10
29431;DHT22;16404;49.902;10.074;2023-04-25T08:35:22;18.00;51.00
29431;DHT22;16404;49.902;10.074;2023-04-25T08:38:08;18.20;50.80
29431;DHT22;16404;49.902;10.074;2023-04-25T08:40:52;18.40;50.50
29431;DHT22;16404;49.902;10.074;2023-04-25T08:43:40;18.40;50.30
29431;DHT22;16404;49.902;10.074;2023-04-25T08:46:26;18.40;50.20
29431;DHT22;16404;49.902;10.074;2023-04-25T08:49:26;18.40;50.00
29431;DHT22;16404;49.902;10.074;2023-04-25T08:52:11;18.50;49.80
29431;DHT22;16404;49.902;10.074;2023-04-25T08:54:56;18.60;49.90
29431;DHT22;16404;49.902;10.074;2023-04-25T08:57:42;18.70;49.60
29431;DHT22;16404;49.902;10.074;2023-04-25T09:00:26;18.80;49.50
29431;DHT22;16404;49.902;10.074;2023-04-25T09:03:11;18.90;49.30
29431;DHT22;16404;49.902;10.074;2023-04-25T09:05:56;19.10;49.20
29431;DHT22;16404;49.902;10.074;2023-04-25T09:08:40;19.20;48.90
29431;DHT22;16404;49.902;10.074;2023-04-25T09:11:25;19.30;48.60
29431;DHT22;16404;49.902;10.074;2023-04-25T09:17:31;19.80;48.50
29431;DHT22;16404;49.902;10.074;2023-04-25T09:20:17;20.10;48.20
29431;DHT22;16404;49.902;10.074;2023-04-25T09:23:05;20.30;48.00
29431;DHT22;16404;49.902;10.074;2023-04-25T09:25:53;20.40;47.90
29431;DHT22;16404;49.902;10.074;2023-04-25T09:28:39;20.60;47.80
29431;DHT22;16404;49.902;10.074;2023-04-25T09:31:23;20.80;47.50
29431;DHT22;16404;49.902;10.074;2023-04-25T09:34:15;20.90;47.40
29431;DHT22;16404;49.902;10.074;2023-04-25T09:37:06;20.90;47.40
29431;DHT22;16404;49.902;10.074;2023-04-25T09:40:10;21.00;47.30
29431;DHT22;16404;49.902;10.074;2023-04-25T09:43:25;21.10;47.20
29431;DHT22;16404;49.902;10.074;2023-04-25T09:46:09;21.20;46.80
29431;DHT22;16404;49.902;10.074;2023-04-25T09:48:58;21.40;46.90
29431;DHT22;16404;49.902;10.074;2023-04-25T09:51:58;21.30;47.00
29431;DHT22;16404;49.902;10.074;2023-04-25T09:54:46;21.20;47.10
29431;DHT22;16404;49.902;10.074;2023-04-25T09:57:34;21.30;47.10
29431;DHT22;16404;49.902;10.074;2023-04-25T10:00:20;21.30;47.00
29431;DHT22;16404;49.902;10.074;2023-04-25T10:03:05;21.30;47.00
29431;DHT22;16404;49.902;10.074;2023-04-25T10:06:09;21.30;46.90
29431;DHT22;16404;49.902;10.074;2023-04-25T10:08:56;21.30;46.80
29431;DHT22;16404;49.902;10.074;2023-04-25T10:11:41;21.10;46.70
29431;DHT22;16404;49.902;10.074;2023-04-25T10:14:25;21.00;46.30
29431;DHT22;16404;49.902;10.074;2023-04-25T10:17:10;20.90;46.50
29431;DHT22;16404;49.902;10.074;2023-04-25T10:19:55;20.80;46.60
29431;DHT22;16404;49.902;10.074;2023-04-25T10:22:44;20.70;46.60
29431;DHT22;16404;49.902;10.074;2023-04-25T10:25:28;20.50;46.40
29431;DHT22;16404;49.902;10.074;2023-04-25T10:28:13;20.40;46.20
29431;DHT22;16404;49.902;10.074;2023-04-25T10:30:58;20.30;45.70
29431;DHT22;16404;49.902;10.074;2023-04-25T10:33:42;20.20;45.70
29431;DHT22;16404;49.902;10.074;2023-04-25T10:36:27;20.10;45.70
29431;DHT22;16404;49.902;10.074;2023-04-25T10:39:15;20.10;45.70
29431;DHT22;16404;49.902;10.074;2023-04-25T10:42:05;19.90;45.60
29431;DHT22;16404;49.902;10.074;2023-04-25T10:45:04;19.80;45.60
29431;DHT22;16404;49.902;10.074;2023-04-25T10:47:49;19.60;45.60
29431;DHT22;16404;49.902;10.074;2023-04-25T10:50:37;19.50;45.70
29431;DHT22;16404;49.902;10.074;2023-04-25T10:53:23;19.40;45.80
29431;DHT22;16404;49.902;10.074;2023-04-25T11:01:53;19.40;45.70
29431;DHT22;16404;49.902;10.074;2023-04-25T11:04:41;19.40;45.60
29431;DHT22;16404;49.902;10.074;2023-04-25T11:10:12;19.40;45.30
29431;DHT22;16404;49.902;10.074;2023-04-25T11:12:57;19.30;45.30
29431;DHT22;16404;49.902;10.074;2023-04-25T11:15:42;19.30;45.40
29431;DHT22;16404;49.902;10.074;2023-04-25T11:18:26;19.20;45.20
29431;DHT22;16404;49.902;10.074;2023-04-25T11:21:11;19.00;44.80
29431;DHT22;16404;49.902;10.074;2023-04-25T11:23:56;18.90;44.70
29431;DHT22;16404;49.902;10.074;2023-04-25T11:26:43;18.80;44.80
29431;DHT22;16404;49.902;10.074;2023-04-25T11:29:32;18.80;44.70
29431;DHT22;16404;49.902;10.074;2023-04-25T11:32:17;18.70;44.70
29431;DHT22;16404;49.902;10.074;2023-04-25T11:35:01;18.60;44.50
29431;DHT22;16404;49.902;10.074;2023-04-25T11:37:45;18.50;44.50
29431;DHT22;16404;49.902;10.074;2023-04-25T11:40:30;18.40;44.50
29431;DHT22;16404;49.902;10.074;2023-04-25T11:43:15;18.30;44.40
29431;DHT22;16404;49.902;10.074;2023-04-25T11:46:00;18.30;44.30
29431;DHT22;16404;49.902;10.074;2023-04-25T11:48:44;18.30;44.10
29431;DHT22;16404;49.902;10.074;2023-04-25T11:51:29;18.30;44.10
29431;DHT22;16404;49.902;10.074;2023-04-25T11:54:15;18.40;44.00
29431;DHT22;16404;49.902;10.074;2023-04-25T11:57:00;18.30;43.80
29431;DHT22;16404;49.902;10.074;2023-04-25T11:59:45;18.30;43.70
29431;DHT22;16404;49.902;10.074;2023-04-25T12:02:30;18.30;43.70
29431;DHT22;16404;49.902;10.074;2023-04-25T12:05:14;18.30;43.40
29431;DHT22;16404;49.902;10.074;2023-04-25T12:08:13;18.40;43.30
29431;DHT22;16404;49.902;10.074;2023-04-25T12:10:58;18.40;43.20
29431;DHT22;16404;49.902;10.074;2023-04-25T12:13:43;18.50;43.20
29431;DHT22;16404;49.902;10.074;2023-04-25T12:16:28;18.50;43.20
29431;DHT22;16404;49.902;10.074;2023-04-25T12:19:15;18.50;43.20
29431;DHT22;16404;49.902;10.074;2023-04-25T12:22:01;18.50;43.30
29431;DHT22;16404;49.902;10.074;2023-04-25T12:24:47;18.40;43.30
29431;DHT22;16404;49.902;10.074;2023-04-25T12:27:31;18.30;43.40
29431;DHT22;16404;49.902;10.074;2023-04-25T12:30:15;18.10;43.50
29431;DHT22;16404;49.902;10.074;2023-04-25T12:33:00;18.00;43.60
29431;DHT22;16404;49.902;10.074;2023-04-25T12:35:45;18.00;43.70
29431;DHT22;16404;49.902;10.074;2023-04-25T12:38:30;17.90;43.80
29431;DHT22;16404;49.902;10.074;2023-04-25T12:41:15;17.90;43.90
29431;DHT22;16404;49.902;10.074;2023-04-25T12:43:59;17.80;43.90
29431;DHT22;16404;49.902;10.074;2023-04-25T12:46:43;17.80;44.00
29431;DHT22;16404;49.902;10.074;2023-04-25T12:49:28;17.80;43.90
29431;DHT22;16404;49.902;10.074;2023-04-25T12:52:12;17.70;43.80
29431;DHT22;16404;49.902;10.074;2023-04-25T12:54:56;17.60;43.90
29431;DHT22;16404;49.902;10.074;2023-04-25T12:57:40;17.50;44.10
29431;DHT22;16404;49.902;10.074;2023-04-25T13:00:25;17.40;44.10
29431;DHT22;16404;49.902;10.074;2023-04-25T13:03:10;17.30;44.40
29431;DHT22;16404;49.902;10.074;2023-04-25T13:05:54;17.10;44.70
29431;DHT22;16404;49.902;10.074;2023-04-25T13:08:39;16.90;44.80
29431;DHT22;16404;49.902;10.074;2023-04-25T13:11:25;16.70;45.10
29431;DHT22;16404;49.902;10.074;2023-04-25T13:14:09;16.60;45.30
29431;DHT22;16404;49.902;10.074;2023-04-25T13:16:53;16.50;45.50
29431;DHT22;16404;49.902;10.074;2023-04-25T13:19:38;16.40;45.50
29431;DHT22;16404;49.902;10.074;2023-04-25T13:22:22;16.40;45.50
29431;DHT22;16404;49.902;10.074;2023-04-25T13:28:11;16.30;45.00
29431;DHT22;16404;49.902;10.074;2023-04-25T13:30:55;15.90;47.60
29431;DHT22;16404;49.902;10.074;2023-04-25T13:33:40;15.90;48.50
29431;DHT22;16404;49.902;10.074;2023-04-25T13:36:25;16.00;49.10
29431;DHT22;16404;49.902;10.074;2023-04-25T13:39:10;16.00;49.60
29431;DHT22;16404;49.902;10.074;2023-04-25T13:41:55;16.10;49.20
29431;DHT22;16404;49.902;10.074;2023-04-25T13:44:40;16.20;48.50
29431;DHT22;16404;49.902;10.074;2023-04-25T13:47:25;16.20;48.00
29431;DHT22;16404;49.902;10.074;2023-04-25T13:50:10;16.20;47.50
29431;DHT22;16404;49.902;10.074;2023-04-25T13:52:55;16.20;47.30
29431;DHT22;16404;49.902;10.074;2023-04-25T13:55:39;16.20;46.60
29431;DHT22;16404;49.902;10.074;2023-04-25T13:58:24;16.20;45.80
29431;DHT22;16404;49.902;10.074;2023-04-25T14:01:09;16.10;45.20
29431;DHT22;16404;49.902;10.074;2023-04-25T14:03:53;16.00;44.60
29431;DHT22;16404;49.902;10.074;2023-04-25T14:06:38;16.00;44.30
29431;DHT22;16404;49.902;10.074;2023-04-25T14:09:23;15.90;44.00
29431;DHT22;16404;49.902;10.074;2023-04-25T14:12:09;15.90;43.70
29431;DHT22;16404;49.902;10.074;2023-04-25T14:14:54;15.90;43.40
29431;DHT22;16404;49.902;10.074;2023-04-25T14:17:38;15.90;43.40
29431;DHT22;16404;49.902;10.074;2023-04-25T14:20:24;16.00;43.30
29431;DHT22;16404;49.902;10.074;2023-04-25T14:23:08;16.00;42.90
29431;DHT22;16404;49.902;10.074;2023-04-25T14:25:53;16.00;42.70
29431;DHT22;16404;49.902;10.074;2023-04-25T14:28:37;16.00;42.70
29431;DHT22;16404;49.902;10.074;2023-04-25T14:31:22;16.00;42.80
29431;DHT22;16404;49.902;10.074;2023-04-25T14:34:07;16.20;43.20
29431;DHT22;16404;49.902;10.074;2023-04-25T14:36:52;16.20;43.10
29431;DHT22;16404;49.902;10.074;2023-04-25T14:39:36;16.40;42.90
29431;DHT22;16404;49.902;10.074;2023-04-25T14:42:21;16.60;42.70
29431;DHT22;16404;49.902;10.074;2023-04-25T14:45:06;16.70;42.60
29431;DHT22;16404;49.902;10.074;2023-04-25T14:47:51;16.80;42.10
29431;DHT22;16404;49.902;10.074;2023-04-25T14:50:36;16.90;42.00
29431;DHT22;16404;49.902;10.074;2023-04-25T14:53:21;16.90;41.90
29431;DHT22;16404;49.902;10.074;2023-04-25T14:56:05;17.00;41.70
29431;DHT22;16404;49.902;10.074;2023-04-25T14:58:51;17.10;41.20
29431;DHT22;16404;49.902;10.074;2023-04-25T15:01:35;17.10;40.80
29431;DHT22;16404;49.902;10.074;2023-04-25T15:04:20;17.10;40.30
29431;DHT22;16404;49.902;10.074;2023-04-25T15:07:05;17.10;40.00
29431;DHT22;16404;49.902;10.074;2023-04-25T15:09:49;17.10;39.80
29431;DHT22;16404;49.902;10.074;2023-04-25T15:12:34;17.10;39.70
29431;DHT22;16404;49.902;10.074;2023-04-25T15:15:19;17.20;40.00
29431;DHT22;16404;49.902;10.074;2023-04-25T15:18:03;17.20;39.90
29431;DHT22;16404;49.902;10.074;2023-04-25T15:20:48;17.30;39.50
29431;DHT22;16404;49.902;10.074;2023-04-25T15:23:33;17.30;39.20
29431;DHT22;16404;49.902;10.074;2023-04-25T15:26:17;17.30;39.40
29431;DHT22;16404;49.902;10.074;2023-04-25T15:29:02;17.30;39.30
29431;DHT22;16404;49.902;10.074;2023-04-25T15:31:47;17.30;39.20
29431;DHT22;16404;49.902;10.074;2023-04-25T15:34:31;17.40;39.50
29431;DHT22;16404;49.902;10.074;2023-04-25T15:37:16;17.30;38.90
29431;DHT22;16404;49.902;10.074;2023-04-25T15:40:05;17.30;38.90
29431;DHT22;16404;49.902;10.074;2023-04-25T15:42:53;17.20;38.50
29431;DHT22;16404;49.902;10.074;2023-04-25T15:45:38;17.20;38.40
29431;DHT22;16404;49.902;10.074;2023-04-25T15:48:22;17.20;38.60
29431;DHT22;16404;49.902;10.074;2023-04-25T15:51:07;17.20;38.60
29431;DHT22;16404;49.902;10.074;2023-04-25T15:53:51;17.20;38.80
29431;DHT22;16404;49.902;10.074;2023-04-25T15:56:36;17.10;38.90
29431;DHT22;16404;49.902;10.074;2023-04-25T15:59:20;17.10;38.90
29431;DHT22;16404;49.902;10.074;2023-04-25T16:02:05;17.10;38.80
29431;DHT22;16404;49.902;10.074;2023-04-25T16:04:50;17.00;38.90
29431;DHT22;16404;49.902;10.074;2023-04-25T16:07:34;17.00;39.10
29431;DHT22;16404;49.902;10.074;2023-04-25T16:10:19;16.90;38.90
29431;DHT22;16404;49.902;10.074;2023-04-25T16:13:04;16.90;38.70
29431;DHT22;16404;49.902;10.074;2023-04-25T16:15:49;16.90;38.70
29431;DHT22;16404;49.902;10.074;2023-04-25T16:18:34;16.90;39.00
29431;DHT22;16404;49.902;10.074;2023-04-25T16:21:18;16.90;39.00
29431;DHT22;16404;49.902;10.074;2023-04-25T16:24:03;16.90;39.20
29431;DHT22;16404;49.902;10.074;2023-04-25T16:26:48;16.90;38.90
29431;DHT22;16404;49.902;10.074;2023-04-25T16:29:32;16.90;38.80
29431;DHT22;16404;49.902;10.074;2023-04-25T16:32:17;16.90;38.70
29431;DHT22;16404;49.902;10.074;2023-04-25T16:35:02;16.90;38.70
29431;DHT22;16404;49.902;10.074;2023-04-25T16:37:46;16.80;38.50
29431;DHT22;16404;49.902;10.074;2023-04-25T16:40:31;16.80;38.50
29431;DHT22;16404;49.902;10.074;2023-04-25T16:43:16;16.70;38.40
29431;DHT22;16404;49.902;10.074;2023-04-25T16:46:03;16.60;38.60
29431;DHT22;16404;49.902;10.074;2023-04-25T16:48:47;16.50;38.50
29431;DHT22;16404;49.902;10.074;2023-04-25T16:51:32;16.40;38.30
29431;DHT22;16404;49.902;10.074;2023-04-25T16:54:16;16.30;38.50
29431;DHT22;16404;49.902;10.074;2023-04-25T16:57:01;16.30;38.70
29431;DHT22;16404;49.902;10.074;2023-04-25T16:59:45;16.30;38.80
29431;DHT22;16404;49.902;10.074;2023-04-25T17:02:30;16.20;39.00
29431;DHT22;16404;49.902;10.074;2023-04-25T17:05:15;16.10;39.30
29431;DHT22;16404;49.902;10.074;2023-04-25T17:08:00;16.10;39.50
29431;DHT22;16404;49.902;10.074;2023-04-25T17:10:44;16.10;40.00
29431;DHT22;16404;49.902;10.074;2023-04-25T17:13:30;16.00;40.10
29431;DHT22;16404;49.902;10.074;2023-04-25T17:16:17;16.00;40.00
29431;DHT22;16404;49.902;10.074;2023-04-25T17:19:05;15.90;40.00
29431;DHT22;16404;49.902;10.074;2023-04-25T17:21:50;15.70;40.20
29431;DHT22;16404;49.902;10.074;2023-04-25T17:24:35;15.70;40.50
29431;DHT22;16404;49.902;10.074;2023-04-25T17:27:20;15.70;40.60
29431;DHT22;16404;49.902;10.074;2023-04-25T17:30:05;15.60;40.70
29431;DHT22;16404;49.902;10.074;2023-04-25T17:32:50;15.60;40.80